sensor_id;sensor_type;location;lat;lon;timestamp;pressure;altitude;pressure_sealevel;temperature;humidity
24160;BME280;62385;41.594;23.808;2024-01-30T00:01:53;97249.88;;;1.41;47.79
24160;BME280;62385;41.594;23.808;2024-01-30T00:04:19;97227.38;;;1.36;47.87
24160;BME280;62385;41.594;23.808;2024-01-30T00:06:44;97259.38;;;1.60;47.42
24160;BME280;62385;41.594;23.808;2024-01-30T00:09:10;97209.38;;;1.12;48.78
24160;BME280;62385;41.594;23.808;2024-01-30T00:11:39;97258.22;;;1.49;48.37
24160;BME280;62385;41.594;23.808;2024-01-30T00:14:05;97224.97;;;1.32;47.56
24160;BME280;62385;41.594;23.808;2024-01-30T00:16:31;97190.88;;;1.33;47.59
24160;BME280;62385;41.594;23.808;2024-01-30T00:18:57;97263.28;;;1.33;49.47
24160;BME280;62385;41.594;23.808;2024-01-30T00:21:23;97257.28;;;0.93;51.17
24160;BME280;62385;41.594;23.808;2024-01-30T00:23:48;97261.63;;;0.74;52.32
24160;BME280;62385;41.594;23.808;2024-01-30T00:26:15;97230.53;;;0.68;52.34
24160;BME280;62385;41.594;23.808;2024-01-30T00:28:43;97233.53;;;0.98;50.00
24160;BME280;62385;41.594;23.808;2024-01-30T00:31:09;97251.06;;;1.15;49.59
24160;BME280;62385;41.594;23.808;2024-01-30T00:33:38;97225.06;;;1.12;49.59
24160;BME280;62385;41.594;23.808;2024-01-30T00:36:09;97249.78;;;1.05;49.78
24160;BME280;62385;41.594;23.808;2024-01-30T00:38:35;97212.19;;;0.88;49.46
24160;BME280;62385;41.594;23.808;2024-01-30T00:41:01;97199.81;;;0.73;49.70
24160;BME280;62385;41.594;23.808;2024-01-30T00:43:28;97244.16;;;0.95;50.01
24160;BME280;62385;41.594;23.808;2024-01-30T00:45:53;97179.41;;;0.04;51.93
24160;BME280;62385;41.594;23.808;2024-01-30T00:48:19;97261.59;;;0.15;53.05
24160;BME280;62385;41.594;23.808;2024-01-30T00:50:45;97249.13;;;0.81;50.97
24160;BME280;62385;41.594;23.808;2024-01-30T00:53:11;97251.19;;;0.54;50.94
24160;BME280;62385;41.594;23.808;2024-01-30T00:55:36;97245.66;;;0.80;50.58
24160;BME280;62385;41.594;23.808;2024-01-30T00:58:02;97216.59;;;0.68;50.06
24160;BME280;62385;41.594;23.808;2024-01-30T01:00:28;97245.50;;;0.83;50.37
24160;BME280;62385;41.594;23.808;2024-01-30T01:02:57;97187.28;;;0.22;50.62
24160;BME280;62385;41.594;23.808;2024-01-30T01:05:23;97254.22;;;0.45;51.01
24160;BME280;62385;41.594;23.808;2024-01-30T01:07:49;97238.78;;;0.59;50.46
24160;BME280;62385;41.594;23.808;2024-01-30T01:10:16;97245.97;;;0.74;50.70
24160;BME280;62385;41.594;23.808;2024-01-30T01:12:42;97217.50;;;0.48;50.82
24160;BME280;62385;41.594;23.808;2024-01-30T01:15:08;97214.22;;;0.43;50.48
24160;BME280;62385;41.594;23.808;2024-01-30T01:17:37;97204.56;;;0.45;50.84
24160;BME280;62385;41.594;23.808;2024-01-30T01:20:04;97241.00;;;0.48;51.22
24160;BME280;62385;41.594;23.808;2024-01-30T01:22:32;97238.91;;;0.56;50.69
24160;BME280;62385;41.594;23.808;2024-01-30T01:24:58;97237.59;;;0.46;50.53
24160;BME280;62385;41.594;23.808;2024-01-30T01:27:24;97200.16;;;0.66;50.04
24160;BME280;62385;41.594;23.808;2024-01-30T01:29:51;97223.44;;;0.31;50.37
24160;BME280;62385;41.594;23.808;2024-01-30T01:32:16;97209.16;;;0.40;50.69
24160;BME280;62385;41.594;23.808;2024-01-30T01:34:42;97196.22;;;0.37;50.39
24160;BME280;62385;41.594;23.808;2024-01-30T01:37:08;97168.44;;;-0.05;51.44
24160;BME280;62385;41.594;23.808;2024-01-30T01:39:34;97238.81;;;0.19;52.55
24160;BME280;62385;41.594;23.808;2024-01-30T01:41:59;97233.03;;;0.51;50.63
24160;BME280;62385;41.594;23.808;2024-01-30T01:44:25;97207.13;;;0.26;51.09
24160;BME280;62385;41.594;23.808;2024-01-30T01:46:52;97219.09;;;0.32;51.56
24160;BME280;62385;41.594;23.808;2024-01-30T01:49:18;97230.63;;;0.46;50.82
24160;BME280;62385;41.594;23.808;2024-01-30T01:51:45;97221.19;;;0.63;50.18
24160;BME280;62385;41.594;23.808;2024-01-30T01:54:14;97233.13;;;0.50;50.34
24160;BME280;62385;41.594;23.808;2024-01-30T01:56:42;97236.44;;;0.53;51.00
24160;BME280;62385;41.594;23.808;2024-01-30T01:59:08;97234.09;;;0.47;51.34
24160;BME280;62385;41.594;23.808;2024-01-30T02:01:36;97208.88;;;0.06;51.41
24160;BME280;62385;41.594;23.808;2024-01-30T02:04:02;97168.31;;;-0.02;51.44
24160;BME280;62385;41.594;23.808;2024-01-30T02:06:28;97237.34;;;0.52;51.33
24160;BME280;62385;41.594;23.808;2024-01-30T02:08:54;97239.09;;;0.52;51.77
24160;BME280;62385;41.594;23.808;2024-01-30T02:11:20;97244.78;;;0.61;50.88
24160;BME280;62385;41.594;23.808;2024-01-30T02:13:46;97240.59;;;0.77;50.43
24160;BME280;62385;41.594;23.808;2024-01-30T02:16:11;97195.72;;;0.29;51.15
24160;BME280;62385;41.594;23.808;2024-01-30T02:18:37;97233.94;;;0.50;51.65
24160;BME280;62385;41.594;23.808;2024-01-30T02:21:07;97240.72;;;-0.07;54.11
24160;BME280;62385;41.594;23.808;2024-01-30T02:23:33;97220.91;;;-0.32;54.71
24160;BME280;62385;41.594;23.808;2024-01-30T02:26:00;97240.16;;;0.07;52.92
24160;BME280;62385;41.594;23.808;2024-01-30T02:28:26;97226.13;;;-0.11;53.45
24160;BME280;62385;41.594;23.808;2024-01-30T02:30:53;97216.47;;;-0.09;53.28
24160;BME280;62385;41.594;23.808;2024-01-30T02:33:18;97232.91;;;0.14;53.11
24160;BME280;62385;41.594;23.808;2024-01-30T02:35:44;97236.13;;;0.20;53.13
24160;BME280;62385;41.594;23.808;2024-01-30T02:38:10;97250.09;;;0.39;51.85
24160;BME280;62385;41.594;23.808;2024-01-30T02:40:36;97238.13;;;0.34;52.38
24160;BME280;62385;41.594;23.808;2024-01-30T02:43:02;97245.06;;;0.15;52.41
24160;BME280;62385;41.594;23.808;2024-01-30T02:45:28;97233.06;;;0.31;51.94
24160;BME280;62385;41.594;23.808;2024-01-30T02:47:57;97246.31;;;0.26;51.67
24160;BME280;62385;41.594;23.808;2024-01-30T02:50:22;97174.94;;;-0.15;51.19
24160;BME280;62385;41.594;23.808;2024-01-30T02:52:48;97196.75;;;0.05;51.20
24160;BME280;62385;41.594;23.808;2024-01-30T02:55:14;97202.56;;;-0.09;51.27
24160;BME280;62385;41.594;23.808;2024-01-30T02:57:43;97207.13;;;-0.14;51.88
24160;BME280;62385;41.594;23.808;2024-01-30T03:00:09;97163.09;;;-0.22;51.14
24160;BME280;62385;41.594;23.808;2024-01-30T03:02:35;97180.84;;;-0.10;50.93
24160;BME280;62385;41.594;23.808;2024-01-30T03:05:05;97178.31;;;-0.33;51.64
24160;BME280;62385;41.594;23.808;2024-01-30T03:07:34;97232.16;;;0.12;51.63
24160;BME280;62385;41.594;23.808;2024-01-30T03:10:00;97221.59;;;-0.07;51.29
24160;BME280;62385;41.594;23.808;2024-01-30T03:12:26;97201.75;;;-0.31;51.46
24160;BME280;62385;41.594;23.808;2024-01-30T03:14:52;97232.69;;;-0.22;51.92
24160;BME280;62385;41.594;23.808;2024-01-30T03:17:18;97191.91;;;-0.25;51.64
24160;BME280;62385;41.594;23.808;2024-01-30T03:19:43;97228.13;;;-0.17;52.12
24160;BME280;62385;41.594;23.808;2024-01-30T03:22:09;97225.91;;;-0.26;52.31
24160;BME280;62385;41.594;23.808;2024-01-30T03:24:35;97217.88;;;-0.22;52.05
24160;BME280;62385;41.594;23.808;2024-01-30T03:27:01;97169.81;;;-0.58;52.11
24160;BME280;62385;41.594;23.808;2024-01-30T03:29:26;97214.06;;;-0.35;52.44
24160;BME280;62385;41.594;23.808;2024-01-30T03:31:52;97244.34;;;-0.31;53.62
24160;BME280;62385;41.594;23.808;2024-01-30T03:34:18;97227.13;;;-0.35;53.36
24160;BME280;62385;41.594;23.808;2024-01-30T03:36:44;97227.47;;;-0.44;53.62
24160;BME280;62385;41.594;23.808;2024-01-30T03:39:10;97234.38;;;-0.86;54.84
24160;BME280;62385;41.594;23.808;2024-01-30T03:41:42;97198.97;;;-1.37;56.22
24160;BME280;62385;41.594;23.808;2024-01-30T03:44:10;97247.50;;;-1.11;56.28
24160;BME280;62385;41.594;23.808;2024-01-30T03:46:36;97219.03;;;-0.94;55.47
24160;BME280;62385;41.594;23.808;2024-01-30T03:49:02;97251.50;;;-0.79;55.59
24160;BME280;62385;41.594;23.808;2024-01-30T03:51:27;97255.31;;;-0.88;55.62
24160;BME280;62385;41.594;23.808;2024-01-30T03:53:53;97260.34;;;-0.83;56.06
24160;BME280;62385;41.594;23.808;2024-01-30T03:56:21;97217.28;;;-0.94;55.92
24160;BME280;62385;41.594;23.808;2024-01-30T03:58:47;97256.84;;;-1.06;56.93
24160;BME280;62385;41.594;23.808;2024-01-30T04:01:13;97252.66;;;-0.65;55.69
24160;BME280;62385;41.594;23.808;2024-01-30T04:03:40;97263.25;;;-0.69;55.22
24160;BME280;62385;41.594;23.808;2024-01-30T04:06:06;97248.50;;;-0.47;54.14
24160;BME280;62385;41.594;23.808;2024-01-30T04:08:32;97265.34;;;-0.56;54.69
24160;BME280;62385;41.594;23.808;2024-01-30T04:10:58;97213.41;;;-1.05;56.08
24160;BME280;62385;41.594;23.808;2024-01-30T04:13:24;97210.44;;;-1.19;56.40
24160;BME280;62385;41.594;23.808;2024-01-30T04:15:49;97247.91;;;-0.77;55.93
24160;BME280;62385;41.594;23.808;2024-01-30T04:18:18;97235.53;;;-0.94;56.70
24160;BME280;62385;41.594;23.808;2024-01-30T04:20:45;97203.09;;;-1.08;55.96
24160;BME280;62385;41.594;23.808;2024-01-30T04:23:13;97249.84;;;-1.04;56.95
24160;BME280;62385;41.594;23.808;2024-01-30T04:25:39;97248.47;;;-1.14;57.06
24160;BME280;62385;41.594;23.808;2024-01-30T04:28:05;97185.72;;;-1.54;56.62
24160;BME280;62385;41.594;23.808;2024-01-30T04:30:30;97195.09;;;-1.27;56.60
24160;BME280;62385;41.594;23.808;2024-01-30T04:32:59;97237.06;;;-1.58;58.03
24160;BME280;62385;41.594;23.808;2024-01-30T04:35:25;97255.19;;;-1.31;58.06
24160;BME280;62385;41.594;23.808;2024-01-30T04:37:54;97257.25;;;-1.64;58.38
24160;BME280;62385;41.594;23.808;2024-01-30T04:40:20;97240.00;;;-1.92;59.19
24160;BME280;62385;41.594;23.808;2024-01-30T04:42:55;97247.91;;;-1.45;58.42
24160;BME280;62385;41.594;23.808;2024-01-30T04:45:21;97238.09;;;-1.38;57.11
24160;BME280;62385;41.594;23.808;2024-01-30T04:47:47;97258.06;;;-0.69;55.22
24160;BME280;62385;41.594;23.808;2024-01-30T04:50:31;97263.63;;;-1.02;56.60
24160;BME280;62385;41.594;23.808;2024-01-30T04:52:56;97201.34;;;-1.08;54.89
24160;BME280;62385;41.594;23.808;2024-01-30T04:55:22;97233.25;;;-0.79;53.76
24160;BME280;62385;41.594;23.808;2024-01-30T04:57:48;97210.28;;;-0.91;53.75
24160;BME280;62385;41.594;23.808;2024-01-30T05:00:13;97255.19;;;-0.20;53.37
24160;BME280;62385;41.594;23.808;2024-01-30T05:02:39;97262.88;;;-0.59;54.32
24160;BME280;62385;41.594;23.808;2024-01-30T05:05:05;97266.25;;;-0.57;53.81
24160;BME280;62385;41.594;23.808;2024-01-30T05:07:30;97251.94;;;-0.68;53.86
24160;BME280;62385;41.594;23.808;2024-01-30T05:09:56;97265.75;;;-0.66;54.36
24160;BME280;62385;41.594;23.808;2024-01-30T05:12:22;97262.13;;;-0.62;54.45
24160;BME280;62385;41.594;23.808;2024-01-30T05:14:47;97280.44;;;-0.64;54.25
24160;BME280;62385;41.594;23.808;2024-01-30T05:17:13;97279.72;;;-0.67;54.74
24160;BME280;62385;41.594;23.808;2024-01-30T05:19:39;97277.75;;;-0.84;55.24
24160;BME280;62385;41.594;23.808;2024-01-30T05:22:04;97277.34;;;-0.97;55.43
24160;BME280;62385;41.594;23.808;2024-01-30T05:24:30;97252.41;;;-0.80;54.80
24160;BME280;62385;41.594;23.808;2024-01-30T05:26:55;97284.47;;;-0.78;55.30
24160;BME280;62385;41.594;23.808;2024-01-30T05:29:21;97289.63;;;-0.77;54.89
24160;BME280;62385;41.594;23.808;2024-01-30T05:31:46;97272.44;;;-1.04;55.13
24160;BME280;62385;41.594;23.808;2024-01-30T05:34:12;97281.97;;;-0.81;55.63
24160;BME280;62385;41.594;23.808;2024-01-30T05:36:37;97283.91;;;-0.86;55.30
24160;BME280;62385;41.594;23.808;2024-01-30T05:39:03;97280.66;;;-0.91;55.64
24160;BME280;62385;41.594;23.808;2024-01-30T05:41:28;97261.44;;;-0.89;55.14
24160;BME280;62385;41.594;23.808;2024-01-30T05:43:54;97293.91;;;-0.98;55.88
24160;BME280;62385;41.594;23.808;2024-01-30T05:46:20;97290.19;;;-1.38;57.28
24160;BME280;62385;41.594;23.808;2024-01-30T05:48:45;97294.91;;;-0.78;55.95
24160;BME280;62385;41.594;23.808;2024-01-30T05:51:11;97298.22;;;-0.97;56.53
24160;BME280;62385;41.594;23.808;2024-01-30T05:53:36;97299.91;;;-0.96;56.21
24160;BME280;62385;41.594;23.808;2024-01-30T05:56:02;97300.94;;;-1.00;56.32
24160;BME280;62385;41.594;23.808;2024-01-30T05:58:28;97296.66;;;-1.02;56.59
24160;BME280;62385;41.594;23.808;2024-01-30T06:00:54;97300.53;;;-0.89;56.54
24160;BME280;62385;41.594;23.808;2024-01-30T06:03:20;97299.84;;;-1.17;57.14
24160;BME280;62385;41.594;23.808;2024-01-30T06:05:45;97310.75;;;-1.31;58.31
24160;BME280;62385;41.594;23.808;2024-01-30T06:08:11;97306.50;;;-1.33;58.45
24160;BME280;62385;41.594;23.808;2024-01-30T06:10:36;97289.00;;;-1.30;57.44
24160;BME280;62385;41.594;23.808;2024-01-30T06:13:02;97314.34;;;-1.10;57.35
24160;BME280;62385;41.594;23.808;2024-01-30T06:15:27;97318.69;;;-1.11;57.30
24160;BME280;62385;41.594;23.808;2024-01-30T06:17:55;97302.50;;;-1.19;57.27
24160;BME280;62385;41.594;23.808;2024-01-30T06:20:21;97319.09;;;-0.98;56.04
24160;BME280;62385;41.594;23.808;2024-01-30T06:22:46;97316.16;;;-1.12;56.58
24160;BME280;62385;41.594;23.808;2024-01-30T06:25:12;97321.25;;;-1.09;56.44
24160;BME280;62385;41.594;23.808;2024-01-30T06:27:37;97325.94;;;-1.19;56.87
24160;BME280;62385;41.594;23.808;2024-01-30T06:30:04;97317.47;;;-0.77;55.99
24160;BME280;62385;41.594;23.808;2024-01-30T06:32:30;97310.06;;;-0.66;55.55
24160;BME280;62385;41.594;23.808;2024-01-30T06:35:02;97324.03;;;-0.90;55.70
24160;BME280;62385;41.594;23.808;2024-01-30T06:37:28;97329.88;;;-0.84;56.01
24160;BME280;62385;41.594;23.808;2024-01-30T06:39:54;97324.16;;;-0.94;55.98
24160;BME280;62385;41.594;23.808;2024-01-30T06:42:19;97315.53;;;-0.72;55.44
24160;BME280;62385;41.594;23.808;2024-01-30T06:44:45;97319.34;;;-0.36;54.87
24160;BME280;62385;41.594;23.808;2024-01-30T06:47:11;97318.09;;;-0.71;55.52
24160;BME280;62385;41.594;23.808;2024-01-30T06:49:36;97317.72;;;-0.62;55.18
24160;BME280;62385;41.594;23.808;2024-01-30T06:52:07;97318.84;;;-0.46;54.42
24160;BME280;62385;41.594;23.808;2024-01-30T06:54:33;97312.06;;;-0.73;55.39
24160;BME280;62385;41.594;23.808;2024-01-30T06:56:59;97308.53;;;-0.49;54.58
24160;BME280;62385;41.594;23.808;2024-01-30T06:59:25;97317.06;;;-0.22;54.72
24160;BME280;62385;41.594;23.808;2024-01-30T07:01:51;97310.44;;;-0.09;53.90
24160;BME280;62385;41.594;23.808;2024-01-30T07:04:16;97314.53;;;0.19;53.38
24160;BME280;62385;41.594;23.808;2024-01-30T07:06:43;97317.69;;;0.05;52.99
24160;BME280;62385;41.594;23.808;2024-01-30T07:09:09;97311.91;;;0.19;52.51
24160;BME280;62385;41.594;23.808;2024-01-30T07:11:34;97315.47;;;0.58;51.44
24160;BME280;62385;41.594;23.808;2024-01-30T07:14:00;97307.03;;;0.52;51.67
24160;BME280;62385;41.594;23.808;2024-01-30T07:16:25;97307.31;;;0.45;51.81
24160;BME280;62385;41.594;23.808;2024-01-30T07:18:51;97312.41;;;0.69;51.10
24160;BME280;62385;41.594;23.808;2024-01-30T07:21:17;97312.22;;;0.73;50.57
24160;BME280;62385;41.594;23.808;2024-01-30T07:23:42;97307.28;;;0.86;50.84
24160;BME280;62385;41.594;23.808;2024-01-30T07:26:08;97313.09;;;0.92;50.96
24160;BME280;62385;41.594;23.808;2024-01-30T07:28:34;97317.72;;;1.06;50.81
24160;BME280;62385;41.594;23.808;2024-01-30T07:31:03;97280.81;;;0.93;51.00
24160;BME280;62385;41.594;23.808;2024-01-30T07:33:29;97314.94;;;0.90;50.39
24160;BME280;62385;41.594;23.808;2024-01-30T07:35:54;97310.94;;;1.02;49.51
24160;BME280;62385;41.594;23.808;2024-01-30T07:38:20;97320.03;;;0.93;50.12
24160;BME280;62385;41.594;23.808;2024-01-30T07:40:46;97314.91;;;1.29;48.92
24160;BME280;62385;41.594;23.808;2024-01-30T07:43:11;97316.97;;;1.23;48.78
24160;BME280;62385;41.594;23.808;2024-01-30T07:45:37;97323.25;;;1.37;48.48
24160;BME280;62385;41.594;23.808;2024-01-30T07:48:05;97311.50;;;1.09;49.05
24160;BME280;62385;41.594;23.808;2024-01-30T07:50:31;97320.06;;;1.31;48.81
24160;BME280;62385;41.594;23.808;2024-01-30T07:52:56;97322.69;;;1.31;48.07
24160;BME280;62385;41.594;23.808;2024-01-30T07:55:41;97319.50;;;1.24;48.37
24160;BME280;62385;41.594;23.808;2024-01-30T07:58:09;97316.81;;;1.26;47.97
24160;BME280;62385;41.594;23.808;2024-01-30T08:00:35;97325.78;;;1.58;48.24
24160;BME280;62385;41.594;23.808;2024-01-30T08:03:01;97316.38;;;1.54;47.67
24160;BME280;62385;41.594;23.808;2024-01-30T08:05:26;97292.22;;;1.30;47.72
24160;BME280;62385;41.594;23.808;2024-01-30T08:07:52;97310.59;;;1.66;47.44
24160;BME280;62385;41.594;23.808;2024-01-30T08:10:17;97325.78;;;1.58;47.07
24160;BME280;62385;41.594;23.808;2024-01-30T08:12:46;97297.38;;;1.50;46.79
24160;BME280;62385;41.594;23.808;2024-01-30T08:15:11;97311.84;;;1.95;46.70
24160;BME280;62385;41.594;23.808;2024-01-30T08:17:38;97308.38;;;1.75;46.08
24160;BME280;62385;41.594;23.808;2024-01-30T08:20:04;97320.66;;;2.11;46.17
24160;BME280;62385;41.594;23.808;2024-01-30T08:22:30;97304.44;;;1.85;46.74
24160;BME280;62385;41.594;23.808;2024-01-30T08:24:56;97317.31;;;1.90;46.51
24160;BME280;62385;41.594;23.808;2024-01-30T08:27:21;97294.38;;;2.29;46.10
24160;BME280;62385;41.594;23.808;2024-01-30T08:29:47;97305.34;;;2.38;45.78
24160;BME280;62385;41.594;23.808;2024-01-30T08:32:12;97298.91;;;2.09;46.03
24160;BME280;62385;41.594;23.808;2024-01-30T08:34:38;97306.78;;;2.09;46.11
24160;BME280;62385;41.594;23.808;2024-01-30T08:37:04;97303.56;;;2.21;45.96
24160;BME280;62385;41.594;23.808;2024-01-30T08:39:29;97292.31;;;2.19;45.79
24160;BME280;62385;41.594;23.808;2024-01-30T08:41:55;97287.84;;;2.38;44.87
24160;BME280;62385;41.594;23.808;2024-01-30T08:44:21;97303.56;;;2.38;45.34
24160;BME280;62385;41.594;23.808;2024-01-30T08:46:46;97280.50;;;2.45;45.54
24160;BME280;62385;41.594;23.808;2024-01-30T08:49:13;97310.75;;;2.35;45.15
24160;BME280;62385;41.594;23.808;2024-01-30T08:51:39;97305.41;;;2.19;45.08
24160;BME280;62385;41.594;23.808;2024-01-30T08:54:05;97287.50;;;2.61;44.64
24160;BME280;62385;41.594;23.808;2024-01-30T08:56:31;97303.56;;;2.38;44.35
24160;BME280;62385;41.594;23.808;2024-01-30T08:58:56;97286.75;;;2.76;44.76
24160;BME280;62385;41.594;23.808;2024-01-30T09:01:22;97290.22;;;2.60;44.69
24160;BME280;62385;41.594;23.808;2024-01-30T09:03:47;97295.22;;;2.82;44.25
24160;BME280;62385;41.594;23.808;2024-01-30T09:06:13;97292.28;;;2.88;44.01
24160;BME280;62385;41.594;23.808;2024-01-30T09:08:39;97280.38;;;2.65;44.63
24160;BME280;62385;41.594;23.808;2024-01-30T09:11:14;97279.06;;;2.56;44.71
24160;BME280;62385;41.594;23.808;2024-01-30T09:13:40;97259.69;;;2.42;44.38
24160;BME280;62385;41.594;23.808;2024-01-30T09:16:06;97240.38;;;2.44;44.28
24160;BME280;62385;41.594;23.808;2024-01-30T09:18:32;97279.34;;;2.67;44.34
24160;BME280;62385;41.594;23.808;2024-01-30T09:20:58;97268.00;;;2.84;43.63
24160;BME280;62385;41.594;23.808;2024-01-30T09:23:24;97253.13;;;2.67;44.02
24160;BME280;62385;41.594;23.808;2024-01-30T09:25:50;97256.81;;;2.81;43.87
24160;BME280;62385;41.594;23.808;2024-01-30T09:28:17;97250.03;;;2.76;44.25
24160;BME280;62385;41.594;23.808;2024-01-30T09:30:43;97256.06;;;2.94;43.70
24160;BME280;62385;41.594;23.808;2024-01-30T09:33:08;97251.38;;;3.16;43.71
24160;BME280;62385;41.594;23.808;2024-01-30T09:35:34;97250.47;;;3.49;42.65
24160;BME280;62385;41.594;23.808;2024-01-30T09:38:00;97260.22;;;2.98;43.47
24160;BME280;62385;41.594;23.808;2024-01-30T09:40:25;97212.91;;;2.84;42.57
24160;BME280;62385;41.594;23.808;2024-01-30T09:42:51;97232.94;;;3.02;42.64
24160;BME280;62385;41.594;23.808;2024-01-30T09:45:18;97228.53;;;3.50;43.07
24160;BME280;62385;41.594;23.808;2024-01-30T09:47:44;97224.06;;;3.67;42.58
24160;BME280;62385;41.594;23.808;2024-01-30T09:50:12;97233.09;;;3.78;42.31
24160;BME280;62385;41.594;23.808;2024-01-30T09:52:38;97222.69;;;3.45;41.95
24160;BME280;62385;41.594;23.808;2024-01-30T09:55:08;97211.19;;;3.63;42.18
24160;BME280;62385;41.594;23.808;2024-01-30T09:57:35;97201.53;;;3.32;43.12
24160;BME280;62385;41.594;23.808;2024-01-30T10:00:02;97217.38;;;3.46;42.29
24160;BME280;62385;41.594;23.808;2024-01-30T10:02:38;97201.88;;;3.26;42.16
24160;BME280;62385;41.594;23.808;2024-01-30T10:05:04;97195.75;;;3.57;42.16
24160;BME280;62385;41.594;23.808;2024-01-30T10:07:30;97201.25;;;3.52;42.31
24160;BME280;62385;41.594;23.808;2024-01-30T10:09:56;97196.78;;;3.54;42.24
24160;BME280;62385;41.594;23.808;2024-01-30T10:12:30;97201.53;;;3.63;42.08
24160;BME280;62385;41.594;23.808;2024-01-30T10:14:56;97188.72;;;3.57;41.12
24160;BME280;62385;41.594;23.808;2024-01-30T10:17:25;97185.66;;;3.81;41.69
24160;BME280;62385;41.594;23.808;2024-01-30T10:19:50;97187.78;;;3.74;42.03
24160;BME280;62385;41.594;23.808;2024-01-30T10:22:17;97153.88;;;3.69;41.89
24160;BME280;62385;41.594;23.808;2024-01-30T10:24:42;97178.75;;;3.64;42.00
24160;BME280;62385;41.594;23.808;2024-01-30T10:27:10;97170.13;;;3.46;41.81
24160;BME280;62385;41.594;23.808;2024-01-30T10:29:37;97153.25;;;3.50;41.85
24160;BME280;62385;41.594;23.808;2024-01-30T10:32:03;97149.81;;;3.80;41.87
24160;BME280;62385;41.594;23.808;2024-01-30T10:34:30;97148.56;;;4.01;41.44
24160;BME280;62385;41.594;23.808;2024-01-30T10:37:06;97132.63;;;3.74;41.38
24160;BME280;62385;41.594;23.808;2024-01-30T10:39:37;97147.06;;;3.97;40.94
24160;BME280;62385;41.594;23.808;2024-01-30T10:42:05;97151.97;;;4.31;41.66
24160;BME280;62385;41.594;23.808;2024-01-30T10:44:44;97130.91;;;4.03;40.54
24160;BME280;62385;41.594;23.808;2024-01-30T10:47:18;97145.22;;;4.27;41.26
24160;BME280;62385;41.594;23.808;2024-01-30T10:49:46;97130.97;;;4.45;40.95
24160;BME280;62385;41.594;23.808;2024-01-30T10:52:13;97129.72;;;4.08;41.24
24160;BME280;62385;41.594;23.808;2024-01-30T10:54:40;97114.06;;;4.21;40.35
24160;BME280;62385;41.594;23.808;2024-01-30T10:57:05;97126.66;;;4.44;40.54
24160;BME280;62385;41.594;23.808;2024-01-30T10:59:32;97135.84;;;4.37;39.96
24160;BME280;62385;41.594;23.808;2024-01-30T11:01:59;97109.38;;;4.54;40.16
24160;BME280;62385;41.594;23.808;2024-01-30T11:04:25;97107.38;;;4.72;40.41
24160;BME280;62385;41.594;23.808;2024-01-30T11:06:51;97111.44;;;4.63;40.07
24160;BME280;62385;41.594;23.808;2024-01-30T11:09:17;97092.19;;;4.35;40.09
24160;BME280;62385;41.594;23.808;2024-01-30T11:11:57;97088.22;;;4.84;40.41
24160;BME280;62385;41.594;23.808;2024-01-30T11:14:28;97081.50;;;4.93;39.79
24160;BME280;62385;41.594;23.808;2024-01-30T11:16:57;97070.66;;;4.71;40.06
24160;BME280;62385;41.594;23.808;2024-01-30T11:19:27;97083.59;;;4.88;39.83
24160;BME280;62385;41.594;23.808;2024-01-30T11:21:55;97073.59;;;4.93;39.46
24160;BME280;62385;41.594;23.808;2024-01-30T11:24:23;97072.03;;;4.90;39.41
24160;BME280;62385;41.594;23.808;2024-01-30T11:26:58;97074.63;;;5.04;39.30
24160;BME280;62385;41.594;23.808;2024-01-30T11:29:28;97071.09;;;4.91;39.02
24160;BME280;62385;41.594;23.808;2024-01-30T11:31:54;97068.91;;;4.98;39.50
24160;BME280;62385;41.594;23.808;2024-01-30T11:34:21;97044.44;;;5.10;38.73
24160;BME280;62385;41.594;23.808;2024-01-30T11:36:56;97054.03;;;5.38;38.27
24160;BME280;62385;41.594;23.808;2024-01-30T11:39:29;97050.59;;;5.50;39.59
24160;BME280;62385;41.594;23.808;2024-01-30T11:41:55;97060.75;;;5.29;38.55
24160;BME280;62385;41.594;23.808;2024-01-30T11:44:22;97053.97;;;5.25;39.42
24160;BME280;62385;41.594;23.808;2024-01-30T11:46:51;97049.50;;;5.40;38.98
24160;BME280;62385;41.594;23.808;2024-01-30T11:49:18;97041.25;;;5.71;38.79
24160;BME280;62385;41.594;23.808;2024-01-30T11:51:47;97040.22;;;5.47;39.55
24160;BME280;62385;41.594;23.808;2024-01-30T11:54:17;97037.94;;;5.42;38.02
24160;BME280;62385;41.594;23.808;2024-01-30T11:56:43;97029.53;;;5.63;38.13
24160;BME280;62385;41.594;23.808;2024-01-30T11:59:09;97027.06;;;5.99;38.76
24160;BME280;62385;41.594;23.808;2024-01-30T12:01:35;97010.94;;;6.03;38.53
24160;BME280;62385;41.594;23.808;2024-01-30T12:04:00;97021.41;;;5.66;37.84
24160;BME280;62385;41.594;23.808;2024-01-30T12:06:26;97005.72;;;5.77;38.12
24160;BME280;62385;41.594;23.808;2024-01-30T12:08:59;97017.09;;;5.77;37.53
24160;BME280;62385;41.594;23.808;2024-01-30T12:11:26;97014.38;;;5.66;37.77
24160;BME280;62385;41.594;23.808;2024-01-30T12:13:52;97003.94;;;5.77;36.52
24160;BME280;62385;41.594;23.808;2024-01-30T12:16:19;97001.03;;;5.94;37.29
24160;BME280;62385;41.594;23.808;2024-01-30T12:18:45;96990.03;;;6.13;37.28
24160;BME280;62385;41.594;23.808;2024-01-30T12:21:10;96993.66;;;5.87;37.66
24160;BME280;62385;41.594;23.808;2024-01-30T12:23:36;96984.59;;;6.03;36.50
24160;BME280;62385;41.594;23.808;2024-01-30T12:26:02;96999.81;;;5.73;36.63
24160;BME280;62385;41.594;23.808;2024-01-30T12:28:33;96997.06;;;5.62;37.47
24160;BME280;62385;41.594;23.808;2024-01-30T12:31:02;96998.25;;;5.71;37.98
24160;BME280;62385;41.594;23.808;2024-01-30T12:33:29;96999.28;;;5.68;37.50
24160;BME280;62385;41.594;23.808;2024-01-30T12:35:55;96997.06;;;5.49;37.61
24160;BME280;62385;41.594;23.808;2024-01-30T12:38:21;96979.81;;;5.71;38.09
24160;BME280;62385;41.594;23.808;2024-01-30T12:40:46;96982.56;;;6.07;37.57
24160;BME280;62385;41.594;23.808;2024-01-30T12:43:13;96983.16;;;5.73;37.51
24160;BME280;62385;41.594;23.808;2024-01-30T12:45:39;96989.69;;;5.80;38.31
24160;BME280;62385;41.594;23.808;2024-01-30T12:48:05;96988.75;;;5.81;37.08
24160;BME280;62385;41.594;23.808;2024-01-30T12:50:30;97002.81;;;6.07;36.41
24160;BME280;62385;41.594;23.808;2024-01-30T12:52:56;97012.56;;;5.54;37.01
24160;BME280;62385;41.594;23.808;2024-01-30T12:55:22;97003.03;;;6.03;35.12